sensor_id;sensor_type;location;lat;lon;timestamp;temperature;humidity
67165;SHT31;54093;50.014;19.984;2023-06-24T00:00:35;20.01;75.71
67165;SHT31;54093;50.014;19.984;2023-06-24T00:10:17;19.98;75.00
67165;SHT31;54093;50.014;19.984;2023-06-24T00:19:38;19.98;74.47
67165;SHT31;54093;50.014;19.984;2023-06-24T00:28:59;19.87;74.20
67165;SHT31;54093;50.014;19.984;2023-06-24T00:38:20;19.80;74.15
67165;SHT31;54093;50.014;19.984;2023-06-24T00:47:40;19.74;74.33
67165;SHT31;54093;50.014;19.984;2023-06-24T00:57:01;19.77;73.92
67165;SHT31;54093;50.014;19.984;2023-06-24T01:06:23;19.73;73.75
67165;SHT31;54093;50.014;19.984;2023-06-24T01:15:44;19.66;73.55
67165;SHT31;54093;50.014;19.984;2023-06-24T01:35:16;19.49;73.96
67165;SHT31;54093;50.014;19.984;2023-06-24T01:44:38;19.53;73.57
67165;SHT31;54093;50.014;19.984;2023-06-24T01:54:05;19.53;72.79
67165;SHT31;54093;50.014;19.984;2023-06-24T02:03:27;19.47;72.81
67165;SHT31;54093;50.014;19.984;2023-06-24T02:12:50;19.39;73.08
67165;SHT31;54093;50.014;19.984;2023-06-24T02:22:12;19.40;72.68
67165;SHT31;54093;50.014;19.984;2023-06-24T02:31:33;19.36;72.96
67165;SHT31;54093;50.014;19.984;2023-06-24T02:40:54;19.27;73.51
67165;SHT31;54093;50.014;19.984;2023-06-24T02:50:15;19.32;73.34
67165;SHT31;54093;50.014;19.984;2023-06-24T02:59:37;19.26;73.49
67165;SHT31;54093;50.014;19.984;2023-06-24T03:08:58;19.25;73.56
67165;SHT31;54093;50.014;19.984;2023-06-24T03:18:19;19.18;73.85
67165;SHT31;54093;50.014;19.984;2023-06-24T03:27:40;19.20;74.54
67165;SHT31;54093;50.014;19.984;2023-06-24T03:37:01;19.12;75.58
67165;SHT31;54093;50.014;19.984;2023-06-24T03:46:24;18.99;76.11
67165;SHT31;54093;50.014;19.984;2023-06-24T03:55:46;18.99;76.35
67165;SHT31;54093;50.014;19.984;2023-06-24T04:05:07;19.02;76.01
67165;SHT31;54093;50.014;19.984;2023-06-24T04:14:28;19.06;76.01
67165;SHT31;54093;50.014;19.984;2023-06-24T04:23:49;19.12;75.69
67165;SHT31;54093;50.014;19.984;2023-06-24T04:33:10;19.14;75.85
67165;SHT31;54093;50.014;19.984;2023-06-24T04:42:31;19.12;75.74
67165;SHT31;54093;50.014;19.984;2023-06-24T04:51:51;19.05;76.11
67165;SHT31;54093;50.014;19.984;2023-06-24T05:01:12;18.94;76.62
67165;SHT31;54093;50.014;19.984;2023-06-24T05:10:33;18.75;79.23
67165;SHT31;54093;50.014;19.984;2023-06-24T05:19:54;18.63;80.24
67165;SHT31;54093;50.014;19.984;2023-06-24T05:29:15;18.57;80.90
67165;SHT31;54093;50.014;19.984;2023-06-24T05:38:36;18.61;80.67
67165;SHT31;54093;50.014;19.984;2023-06-24T05:47:57;18.64;81.31
67165;SHT31;54093;50.014;19.984;2023-06-24T05:57:18;18.71;80.99
67165;SHT31;54093;50.014;19.984;2023-06-24T06:06:39;18.71;81.05
67165;SHT31;54093;50.014;19.984;2023-06-24T06:15:59;18.78;81.28
67165;SHT31;54093;50.014;19.984;2023-06-24T06:25:20;18.78;81.86
67165;SHT31;54093;50.014;19.984;2023-06-24T06:34:41;18.77;82.23
67165;SHT31;54093;50.014;19.984;2023-06-24T06:44:03;18.68;82.65
67165;SHT31;54093;50.014;19.984;2023-06-24T06:53:23;18.74;82.71
67165;SHT31;54093;50.014;19.984;2023-06-24T07:02:44;18.64;83.42
67165;SHT31;54093;50.014;19.984;2023-06-24T07:12:06;18.67;83.66
67165;SHT31;54093;50.014;19.984;2023-06-24T07:21:27;18.63;84.33
67165;SHT31;54093;50.014;19.984;2023-06-24T07:30:48;18.69;84.66
67165;SHT31;54093;50.014;19.984;2023-06-24T07:40:09;18.83;84.42
67165;SHT31;54093;50.014;19.984;2023-06-24T07:49:31;18.75;84.07
67165;SHT31;54093;50.014;19.984;2023-06-24T07:58:52;18.78;84.51
67165;SHT31;54093;50.014;19.984;2023-06-24T08:08:13;18.88;84.57
67165;SHT31;54093;50.014;19.984;2023-06-24T08:17:34;19.02;84.28
67165;SHT31;54093;50.014;19.984;2023-06-24T08:26:54;19.08;83.33
67165;SHT31;54093;50.014;19.984;2023-06-24T08:36:15;19.11;82.73
67165;SHT31;54093;50.014;19.984;2023-06-24T08:45:36;19.12;82.25
67165;SHT31;54093;50.014;19.984;2023-06-24T08:54:59;19.14;82.08
67165;SHT31;54093;50.014;19.984;2023-06-24T09:04:20;19.19;82.01
67165;SHT31;54093;50.014;19.984;2023-06-24T09:13:40;19.14;81.37
67165;SHT31;54093;50.014;19.984;2023-06-24T09:23:03;19.15;81.63
67165;SHT31;54093;50.014;19.984;2023-06-24T09:32:33;19.18;82.02
67165;SHT31;54093;50.014;19.984;2023-06-24T09:41:58;19.26;82.26
67165;SHT31;54093;50.014;19.984;2023-06-24T09:51:19;19.30;82.02
67165;SHT31;54093;50.014;19.984;2023-06-24T10:00:41;19.30;80.77
67165;SHT31;54093;50.014;19.984;2023-06-24T10:10:03;19.33;80.84
67165;SHT31;54093;50.014;19.984;2023-06-24T10:19:24;19.36;80.77
67165;SHT31;54093;50.014;19.984;2023-06-24T10:38:27;19.36;79.95
67165;SHT31;54093;50.014;19.984;2023-06-24T10:47:50;19.45;80.11
67165;SHT31;54093;50.014;19.984;2023-06-24T10:57:13;19.52;80.45
67165;SHT31;54093;50.014;19.984;2023-06-24T11:06:34;19.62;80.02
67165;SHT31;54093;50.014;19.984;2023-06-24T11:15:59;19.73;80.28
67165;SHT31;54093;50.014;19.984;2023-06-24T11:25:22;19.56;79.49
67165;SHT31;54093;50.014;19.984;2023-06-24T11:34:43;19.49;80.66
67165;SHT31;54093;50.014;19.984;2023-06-24T11:44:05;19.42;79.61
67165;SHT31;54093;50.014;19.984;2023-06-24T11:53:50;19.42;79.42
67165;SHT31;54093;50.014;19.984;2023-06-24T12:03:10;19.37;80.00
67165;SHT31;54093;50.014;19.984;2023-06-24T12:12:32;19.46;80.52
67165;SHT31;54093;50.014;19.984;2023-06-24T12:21:53;19.37;80.33
67165;SHT31;54093;50.014;19.984;2023-06-24T12:31:14;19.36;80.52
67165;SHT31;54093;50.014;19.984;2023-06-24T12:40:35;19.25;78.83
67165;SHT31;54093;50.014;19.984;2023-06-24T12:49:56;19.04;76.49
67165;SHT31;54093;50.014;19.984;2023-06-24T12:59:16;18.87;77.27
67165;SHT31;54093;50.014;19.984;2023-06-24T13:08:37;18.79;77.11
67165;SHT31;54093;50.014;19.984;2023-06-24T13:17:58;18.72;76.77
67165;SHT31;54093;50.014;19.984;2023-06-24T13:27:19;18.81;77.27
67165;SHT31;54093;50.014;19.984;2023-06-24T13:36:41;18.84;78.10
67165;SHT31;54093;50.014;19.984;2023-06-24T13:46:02;18.85;78.82
67165;SHT31;54093;50.014;19.984;2023-06-24T13:55:24;18.81;75.57
67165;SHT31;54093;50.014;19.984;2023-06-24T14:04:45;18.75;78.98
67165;SHT31;54093;50.014;19.984;2023-06-24T14:14:06;18.72;78.22
67165;SHT31;54093;50.014;19.984;2023-06-24T14:23:28;18.68;78.82
67165;SHT31;54093;50.014;19.984;2023-06-24T14:32:49;18.77;80.21
67165;SHT31;54093;50.014;19.984;2023-06-24T14:42:10;18.75;80.59
67165;SHT31;54093;50.014;19.984;2023-06-24T14:51:31;18.83;80.76
67165;SHT31;54093;50.014;19.984;2023-06-24T15:00:52;18.72;80.46
67165;SHT31;54093;50.014;19.984;2023-06-24T15:10:13;18.58;80.50
67165;SHT31;54093;50.014;19.984;2023-06-24T15:19:34;18.57;81.12
67165;SHT31;54093;50.014;19.984;2023-06-24T15:28:55;18.43;80.64
67165;SHT31;54093;50.014;19.984;2023-06-24T15:38:16;18.32;80.44
67165;SHT31;54093;50.014;19.984;2023-06-24T15:47:37;18.29;80.16
67165;SHT31;54093;50.014;19.984;2023-06-24T15:56:58;18.26;80.22
67165;SHT31;54093;50.014;19.984;2023-06-24T16:06:19;18.26;80.47
67165;SHT31;54093;50.014;19.984;2023-06-24T16:15:40;18.26;80.31
67165;SHT31;54093;50.014;19.984;2023-06-24T16:25:01;18.23;80.24
67165;SHT31;54093;50.014;19.984;2023-06-24T16:34:22;18.23;80.37
67165;SHT31;54093;50.014;19.984;2023-06-24T16:43:47;18.32;81.00
67165;SHT31;54093;50.014;19.984;2023-06-24T16:53:08;18.33;81.02
67165;SHT31;54093;50.014;19.984;2023-06-24T17:02:29;18.22;80.83
67165;SHT31;54093;50.014;19.984;2023-06-24T17:11:53;17.99;79.61
67165;SHT31;54093;50.014;19.984;2023-06-24T17:21:14;17.85;78.56
67165;SHT31;54093;50.014;19.984;2023-06-24T17:30:34;17.74;78.39
67165;SHT31;54093;50.014;19.984;2023-06-24T17:39:55;17.64;79.34
67165;SHT31;54093;50.014;19.984;2023-06-24T17:49:16;17.54;78.65
67165;SHT31;54093;50.014;19.984;2023-06-24T17:58:37;17.40;77.98
67165;SHT31;54093;50.014;19.984;2023-06-24T18:07:58;17.44;79.37
67165;SHT31;54093;50.014;19.984;2023-06-24T18:17:19;17.45;80.64
67165;SHT31;54093;50.014;19.984;2023-06-24T18:26:40;17.07;79.08
67165;SHT31;54093;50.014;19.984;2023-06-24T18:36:01;17.02;80.19
67165;SHT31;54093;50.014;19.984;2023-06-24T18:45:22;16.94;80.72
67165;SHT31;54093;50.014;19.984;2023-06-24T18:54:44;17.02;80.74
67165;SHT31;54093;50.014;19.984;2023-06-24T19:04:05;17.00;80.61
67165;SHT31;54093;50.014;19.984;2023-06-24T19:13:26;16.80;81.66
67165;SHT31;54093;50.014;19.984;2023-06-24T19:22:47;16.76;81.70
67165;SHT31;54093;50.014;19.984;2023-06-24T19:32:08;16.73;81.63
67165;SHT31;54093;50.014;19.984;2023-06-24T19:41:29;16.72;81.36
67165;SHT31;54093;50.014;19.984;2023-06-24T19:50:50;16.65;81.43
67165;SHT31;54093;50.014;19.984;2023-06-24T20:00:11;16.62;81.21
67165;SHT31;54093;50.014;19.984;2023-06-24T20:09:33;16.59;80.89
67165;SHT31;54093;50.014;19.984;2023-06-24T20:18:54;16.62;81.24
67165;SHT31;54093;50.014;19.984;2023-06-24T20:28:15;16.65;81.35
67165;SHT31;54093;50.014;19.984;2023-06-24T20:37:36;16.63;82.03
67165;SHT31;54093;50.014;19.984;2023-06-24T20:46:57;16.68;81.93
67165;SHT31;54093;50.014;19.984;2023-06-24T20:56:18;16.68;81.68
67165;SHT31;54093;50.014;19.984;2023-06-24T21:05:39;16.73;82.30
67165;SHT31;54093;50.014;19.984;2023-06-24T21:14:59;16.80;82.47
67165;SHT31;54093;50.014;19.984;2023-06-24T21:24:21;16.65;82.25
67165;SHT31;54093;50.014;19.984;2023-06-24T21:33:42;16.56;82.58
67165;SHT31;54093;50.014;19.984;2023-06-24T21:43:03;16.47;82.69
67165;SHT31;54093;50.014;19.984;2023-06-24T21:52:24;16.36;82.70
67165;SHT31;54093;50.014;19.984;2023-06-24T22:01:45;16.24;82.58
67165;SHT31;54093;50.014;19.984;2023-06-24T22:11:06;16.10;82.89
67165;SHT31;54093;50.014;19.984;2023-06-24T22:20:27;16.03;82.99
67165;SHT31;54093;50.014;19.984;2023-06-24T22:29:48;15.94;83.26
67165;SHT31;54093;50.014;19.984;2023-06-24T22:39:09;15.94;83.01
67165;SHT31;54093;50.014;19.984;2023-06-24T22:48:30;15.83;83.28
67165;SHT31;54093;50.014;19.984;2023-06-24T22:57:50;15.76;83.59
67165;SHT31;54093;50.014;19.984;2023-06-24T23:07:11;15.65;83.76
67165;SHT31;54093;50.014;19.984;2023-06-24T23:16:32;15.63;83.63
67165;SHT31;54093;50.014;19.984;2023-06-24T23:25:53;15.55;83.69
67165;SHT31;54093;50.014;19.984;2023-06-24T23:35:15;15.45;83.96
67165;SHT31;54093;50.014;19.984;2023-06-24T23:44:36;15.46;83.92
67165;SHT31;54093;50.014;19.984;2023-06-24T23:53:57;15.39;84.27
